Time;durP1;ratioP1;P1;durP2;ratioP2;P2;SDS_P1;SDS_P2;PMS_P1;PMS_P2;Temp;Humidity;BMP_temperature;BMP_pressure;BME280_temperature;BME280_humidity;BME280_pressure;Samples;Min_cycle;Max_cycle;Signal;HPM_P1;HPM_P2
2022/07/15 00:00:37;;;;;;;3.00;2.22;;;16.10;99.90;;;;;;4995298;28;20313;-82
2022/07/15 00:03:03;;;;;;;3.35;2.58;;;16.10;99.90;;;;;;5010320;28;20631;-82
2022/07/15 00:05:29;;;;;;;4.00;3.47;;;16.10;99.90;;;;;;4977349;28;20210;-82
2022/07/15 00:07:54;;;;;;;4.60;2.08;;;16.20;99.90;;;;;;4994000;28;20181;-82
2022/07/15 00:10:21;;;;;;;2.80;2.35;;;16.10;99.90;;;;;;5010191;28;20182;-83
2022/07/15 00:12:52;;;;;;;6.75;2.75;;;16.00;99.90;;;;;;4977246;28;20244;-83
2022/07/15 00:15:20;;;;;;;3.60;2.40;;;16.00;99.90;;;;;;4994628;28;20178;-83
2022/07/15 00:17:46;;;;;;;2.92;2.45;;;16.00;99.90;;;;;;4993471;28;20189;-82
2022/07/15 00:20:13;;;;;;;3.05;2.33;;;16.00;99.90;;;;;;4993698;28;20178;-83
2022/07/15 00:22:40;;;;;;;1.92;1.50;;;15.90;99.90;;;;;;4994265;28;20208;-83
2022/07/15 00:25:06;;;;;;;1.90;1.63;;;15.80;99.90;;;;;;4993531;28;20229;-83
2022/07/15 00:27:31;;;;;;;1.45;1.35;;;15.60;99.90;;;;;;5009367;28;20189;-83
2022/07/15 00:29:57;;;;;;;2.80;1.83;;;15.60;99.90;;;;;;4993621;28;20693;-82
2022/07/15 00:32:23;;;;;;;3.05;1.67;;;15.60;99.90;;;;;;4993555;28;20264;-82
2022/07/15 00:34:50;;;;;;;2.72;1.70;;;15.60;99.90;;;;;;4994094;28;20178;-82
2022/07/15 00:37:16;;;;;;;1.52;1.42;;;15.60;99.90;;;;;;4993229;28;20186;-82
2022/07/15 00:39:43;;;;;;;3.13;1.73;;;15.60;99.90;;;;;;4993147;28;20500;-82
2022/07/15 00:42:11;;;;;;;2.65;1.73;;;15.50;99.90;;;;;;4977290;28;20182;-82
2022/07/15 00:44:37;;;;;;;2.15;1.90;;;15.60;99.90;;;;;;4992879;28;20232;-82
2022/07/15 00:47:04;;;;;;;2.58;1.65;;;15.60;99.90;;;;;;4994102;28;20571;-82
2022/07/15 00:49:29;;;;;;;2.47;2.28;;;15.50;99.90;;;;;;4993069;28;20178;-82
2022/07/15 00:51:55;;;;;;;1.88;1.60;;;15.50;99.90;;;;;;4993108;28;20185;-82
2022/07/15 00:54:24;;;;;;;1.88;1.67;;;15.50;99.90;;;;;;4994316;28;20181;-82
2022/07/15 00:56:57;;;;;;;2.58;1.65;;;15.50;99.90;;;;;;4994014;28;20255;-82
2022/07/15 00:59:25;;;;;;;2.30;2.10;;;15.40;99.90;;;;;;4994359;28;20177;-82
2022/07/15 01:01:53;;;;;;;3.83;2.00;;;15.50;99.90;;;;;;4993619;28;20661;-83
2022/07/15 01:04:21;;;;;;;5.65;2.22;;;15.50;99.90;;;;;;5009138;28;20277;-83
2022/07/15 01:06:47;;;;;;;5.00;2.30;;;15.50;99.90;;;;;;4992432;28;20568;-82
2022/07/15 01:09:12;;;;;;;4.80;2.00;;;15.50;99.90;;;;;;4976717;28;20181;-82
2022/07/15 01:11:38;;;;;;;2.75;1.70;;;15.50;99.90;;;;;;5008887;28;20358;-83
2022/07/15 01:14:04;;;;;;;1.73;1.63;;;15.40;99.90;;;;;;4993758;28;20578;-82
2022/07/15 01:16:31;;;;;;;2.83;1.80;;;15.40;99.90;;;;;;4992844;28;20240;-82
2022/07/15 01:18:57;;;;;;;4.05;1.85;;;15.40;99.90;;;;;;4993686;28;20185;-83
2022/07/15 01:21:22;;;;;;;2.45;2.10;;;15.40;99.90;;;;;;4993956;28;20200;-83
2022/07/15 01:23:49;;;;;;;2.17;1.70;;;15.50;99.90;;;;;;4993672;28;20701;-83
2022/07/15 01:26:15;;;;;;;2.38;1.70;;;15.40;99.90;;;;;;4993054;28;20209;-82
2022/07/15 01:28:42;;;;;;;1.80;1.58;;;15.40;99.90;;;;;;4976214;28;20714;-83
2022/07/15 01:31:08;;;;;;;1.98;1.70;;;15.40;99.90;;;;;;4993821;28;20651;-82
2022/07/15 01:33:35;;;;;;;1.80;1.60;;;15.40;99.90;;;;;;4992504;28;20182;-81
2022/07/15 01:36:00;;;;;;;2.28;1.90;;;15.40;99.90;;;;;;4993495;28;20182;-82
2022/07/15 01:38:27;;;;;;;2.28;1.92;;;15.40;99.90;;;;;;5008591;28;20540;-82
2022/07/15 01:40:54;;;;;;;3.30;2.00;;;15.40;99.90;;;;;;4993172;28;20174;-82
2022/07/15 01:43:19;;;;;;;1.77;1.55;;;15.40;99.90;;;;;;5008970;28;20186;-82
2022/07/15 01:45:46;;;;;;;2.30;2.00;;;15.40;99.90;;;;;;4993008;28;20535;-83
2022/07/15 01:50:58;;;;;;;5.03;2.55;;;15.50;99.90;;;;;;4993440;28;20525;-84
2022/07/15 01:53:25;;;;;;;3.92;2.45;;;15.40;99.90;;;;;;4992744;28;20177;-84
2022/07/15 01:55:51;;;;;;;2.22;1.90;;;15.40;99.90;;;;;;4993081;28;20182;-84
2022/07/15 01:58:17;;;;;;;2.35;2.05;;;15.30;99.90;;;;;;4994094;28;20213;-85
2022/07/15 02:00:43;;;;;;;3.58;2.30;;;15.40;99.90;;;;;;4993866;28;20201;-83
2022/07/15 02:03:09;;;;;;;3.00;2.10;;;15.40;99.90;;;;;;4992495;28;20647;-83
2022/07/15 02:05:35;;;;;;;3.25;2.55;;;15.40;99.90;;;;;;4992280;28;20690;-83
2022/07/15 02:08:02;;;;;;;3.97;2.50;;;15.40;99.90;;;;;;4993283;28;20186;-83
2022/07/15 02:10:40;;;;;;;2.97;2.40;;;15.40;99.90;;;;;;4992560;28;20178;-82
2022/07/15 02:13:13;;;;;;;2.90;2.33;;;15.30;99.90;;;;;;4993965;28;20186;-82
2022/07/15 02:15:40;;;;;;;3.15;2.17;;;15.30;99.90;;;;;;4992393;28;20186;-83
2022/07/15 02:18:07;;;;;;;2.65;2.00;;;15.40;99.90;;;;;;4975760;28;20556;-83
2022/07/15 02:20:33;;;;;;;3.25;2.55;;;15.30;99.90;;;;;;4993650;28;20175;-82
2022/07/15 02:23:01;;;;;;;3.85;2.90;;;15.30;99.90;;;;;;4991791;28;20182;-82
2022/07/15 02:25:28;;;;;;;4.57;2.60;;;15.30;99.90;;;;;;4993327;28;20264;-83
2022/07/15 02:27:58;;;;;;;4.30;2.75;;;15.30;99.90;;;;;;4992682;28;20237;-83
2022/07/15 02:30:36;;;;;;;5.80;2.97;;;15.30;99.90;;;;;;4993440;28;20237;-83
2022/07/15 02:33:02;;;;;;;3.92;3.10;;;15.30;99.90;;;;;;4991451;28;20205;-83
2022/07/15 02:35:29;;;;;;;4.22;3.05;;;15.30;99.90;;;;;;4993308;28;20185;-83
2022/07/15 02:37:55;;;;;;;4.78;3.65;;;15.30;99.90;;;;;;4993839;28;20197;-83
2022/07/15 02:40:21;;;;;;;7.10;3.42;;;15.30;99.90;;;;;;4995231;28;20174;-84
2022/07/15 02:42:49;;;;;;;5.55;3.50;;;15.30;99.90;;;;;;4995086;28;20186;-85
2022/07/15 02:45:14;;;;;;;4.90;3.53;;;15.30;99.90;;;;;;4996804;28;20261;-83
2022/07/15 02:47:40;;;;;;;5.15;3.35;;;15.30;99.90;;;;;;4995587;28;20268;-82
2022/07/15 02:50:06;;;;;;;5.35;3.97;;;15.30;99.90;;;;;;4995397;28;20535;-82
2022/07/15 02:52:32;;;;;;;6.53;4.35;;;15.30;99.90;;;;;;4995567;28;20185;-82
2022/07/15 02:54:58;;;;;;;4.22;2.92;;;15.30;99.90;;;;;;4995474;28;20639;-83
2022/07/15 02:57:24;;;;;;;6.43;3.88;;;15.30;99.90;;;;;;4996610;28;20185;-83
2022/07/15 02:59:49;;;;;;;8.90;4.07;;;15.30;99.90;;;;;;5011707;28;20588;-83
2022/07/15 03:02:15;;;;;;;5.55;3.15;;;15.20;99.90;;;;;;4995761;28;20220;-83
2022/07/15 03:04:41;;;;;;;4.97;3.20;;;15.20;99.90;;;;;;4995296;28;20178;-83
2022/07/15 03:07:06;;;;;;;3.85;3.30;;;15.20;99.90;;;;;;4995734;28;20209;-83
2022/07/15 03:09:32;;;;;;;4.20;3.28;;;15.20;99.90;;;;;;5012445;28;20225;-83
2022/07/15 03:11:57;;;;;;;4.75;3.55;;;15.20;99.90;;;;;;4994664;28;20196;-84
2022/07/15 03:14:23;;;;;;;6.70;4.55;;;15.20;99.90;;;;;;4996266;28;20181;-83
2022/07/15 03:16:48;;;;;;;4.40;3.63;;;15.20;99.90;;;;;;4996284;28;20190;-82
2022/07/15 03:19:14;;;;;;;6.28;3.72;;;15.20;99.90;;;;;;4978456;28;20215;-83
2022/07/15 03:21:40;;;;;;;6.22;4.25;;;15.20;99.90;;;;;;4996219;28;20584;-83
2022/07/15 03:24:07;;;;;;;5.80;4.32;;;15.30;99.90;;;;;;4995800;28;20188;-82
2022/07/15 03:26:33;;;;;;;9.55;4.57;;;15.30;99.90;;;;;;4995886;28;20209;-82
2022/07/15 03:29:00;;;;;;;5.70;4.10;;;15.30;99.90;;;;;;4994285;28;20238;-83
2022/07/15 03:31:26;;;;;;;8.32;4.50;;;15.30;99.90;;;;;;4994850;28;20228;-82
2022/07/15 03:33:52;;;;;;;8.25;3.72;;;15.40;99.90;;;;;;4995808;28;20182;-82
2022/07/15 03:36:18;;;;;;;4.68;3.35;;;15.40;99.90;;;;;;4995805;28;20182;-82
2022/07/15 03:38:43;;;;;;;6.18;3.95;;;15.30;99.90;;;;;;4996636;28;20181;-82
2022/07/15 03:41:09;;;;;;;6.70;4.35;;;15.40;99.90;;;;;;4997085;28;20178;-83
2022/07/15 03:43:34;;;;;;;5.45;4.07;;;15.40;99.90;;;;;;4997450;28;20193;-82
2022/07/15 03:46:00;;;;;;;7.90;4.60;;;15.40;99.90;;;;;;4979556;28;20740;-82
2022/07/15 03:48:26;;;;;;;6.53;4.57;;;15.40;99.90;;;;;;5012800;28;20189;-84
2022/07/15 03:50:51;;;;;;;6.15;4.30;;;15.40;99.90;;;;;;5006787;28;20186;-83
2022/07/15 03:53:17;;;;;;;6.57;4.72;;;15.30;99.90;;;;;;5032060;28;20182;-82
2022/07/15 03:55:42;;;;;;;8.48;3.75;;;15.40;99.90;;;;;;5015953;28;20178;-83
2022/07/15 03:58:08;;;;;;;6.65;4.05;;;15.40;99.90;;;;;;5015413;28;20186;-83
2022/07/15 04:00:34;;;;;;;6.65;4.00;;;15.40;99.90;;;;;;5007535;28;20655;-83
2022/07/15 04:02:59;;;;;;;7.70;4.30;;;15.40;99.90;;;;;;4997689;28;20193;-83
2022/07/15 04:05:25;;;;;;;5.65;4.40;;;15.40;99.90;;;;;;4994387;28;20206;-83
2022/07/15 04:07:50;;;;;;;5.50;3.80;;;15.50;99.90;;;;;;4994435;28;20177;-83
2022/07/15 04:10:16;;;;;;;7.35;4.68;;;15.40;99.90;;;;;;5010363;28;20597;-83
2022/07/15 04:12:42;;;;;;;5.97;4.32;;;15.40;99.90;;;;;;4995585;28;20645;-82
2022/07/15 04:15:08;;;;;;;7.68;4.78;;;15.50;99.90;;;;;;4994059;28;20178;-84
2022/07/15 04:17:34;;;;;;;5.03;3.53;;;15.50;99.90;;;;;;4994015;28;20264;-83
2022/07/15 04:20:00;;;;;;;9.27;5.47;;;15.50;99.90;;;;;;4994907;28;20173;-83
2022/07/15 04:22:26;;;;;;;5.93;4.03;;;15.50;99.90;;;;;;4994511;28;20182;-82
2022/07/15 04:24:51;;;;;;;5.65;4.15;;;15.60;99.90;;;;;;4996177;28;20532;-83
2022/07/15 04:27:17;;;;;;;5.10;4.22;;;15.60;99.90;;;;;;4995864;28;20210;-83
2022/07/15 04:29:43;;;;;;;5.75;4.32;;;15.60;99.90;;;;;;4997758;28;20234;-83
2022/07/15 04:32:08;;;;;;;7.50;4.68;;;15.60;99.90;;;;;;5000251;28;20182;-85
2022/07/15 04:34:34;;;;;;;6.50;4.30;;;15.60;99.90;;;;;;5018660;28;20163;-82
2022/07/15 04:37:00;;;;;;;6.15;4.32;;;15.70;99.90;;;;;;5035111;28;20186;-83
2022/07/15 04:39:26;;;;;;;7.50;5.07;;;15.70;99.90;;;;;;5019193;28;20197;-84
2022/07/15 04:41:51;;;;;;;9.45;5.00;;;15.80;99.90;;;;;;5015914;28;20502;-85
2022/07/15 04:44:18;;;;;;;7.90;4.85;;;15.80;99.90;;;;;;4986942;28;20173;-84
2022/07/15 04:46:44;;;;;;;7.15;4.97;;;15.90;99.90;;;;;;5007552;28;20209;-85
2022/07/15 04:51:53;;;;;;;7.82;4.80;;;15.90;99.90;;;;;;5028691;28;20223;-84
2022/07/15 04:54:19;;;;;;;7.60;5.05;;;16.00;99.90;;;;;;5025338;28;20189;-85
2022/07/15 04:56:45;;;;;;;6.60;4.72;;;16.00;99.90;;;;;;5006395;28;20257;-85
2022/07/15 04:59:10;;;;;;;8.27;5.20;;;16.10;99.90;;;;;;5002923;28;20650;-84
2022/07/15 05:01:36;;;;;;;9.73;5.68;;;16.10;99.90;;;;;;5005133;28;20581;-85
2022/07/15 05:04:02;;;;;;;7.95;5.45;;;16.10;99.90;;;;;;5005535;28;20594;-83
2022/07/15 05:06:27;;;;;;;7.40;4.57;;;16.10;99.90;;;;;;5002904;28;20671;-85
2022/07/15 05:08:53;;;;;;;7.10;4.20;;;16.20;99.90;;;;;;5003973;28;20691;-85
2022/07/15 05:11:18;;;;;;;8.25;4.93;;;16.20;99.90;;;;;;5003619;28;20186;-83
2022/07/15 05:13:44;;;;;;;7.88;5.35;;;16.20;99.90;;;;;;5003324;28;20186;-83
2022/07/15 05:16:10;;;;;;;7.70;5.18;;;16.20;99.90;;;;;;5005287;28;20185;-85
2022/07/15 05:18:37;;;;;;;14.20;5.15;;;16.40;99.90;;;;;;5003306;28;20257;-84
2022/07/15 05:21:02;;;;;;;7.32;4.55;;;16.40;99.90;;;;;;5003085;28;20183;-84
2022/07/15 05:23:28;;;;;;;8.27;5.03;;;16.40;99.90;;;;;;5006828;28;20189;-81
2022/07/15 05:25:54;;;;;;;6.93;4.57;;;16.50;99.90;;;;;;5009443;28;20690;-85
2022/07/15 05:28:20;;;;;;;7.50;5.05;;;16.60;99.90;;;;;;5011231;28;20297;-83
2022/07/15 05:30:45;;;;;;;6.18;4.72;;;16.70;99.90;;;;;;5008633;28;20181;-83
2022/07/15 05:33:12;;;;;;;5.78;4.55;;;16.80;99.90;;;;;;5002527;28;20215;-83
2022/07/15 05:35:38;;;;;;;5.60;4.28;;;17.00;99.90;;;;;;5001723;28;20196;-83
2022/07/15 05:38:03;;;;;;;5.75;3.88;;;17.10;99.90;;;;;;5007889;28;20647;-84
2022/07/15 05:40:29;;;;;;;7.63;3.80;;;17.10;99.90;;;;;;5004499;28;20185;-83
2022/07/15 05:42:55;;;;;;;4.13;3.05;;;17.10;99.90;;;;;;5011170;28;20558;-84
2022/07/15 05:45:20;;;;;;;5.85;3.38;;;17.10;99.90;;;;;;5011446;28;20260;-84
2022/07/15 05:47:48;;;;;;;4.88;3.50;;;17.10;99.90;;;;;;5012098;28;20177;-84
2022/07/15 05:50:14;;;;;;;4.05;2.75;;;17.10;99.90;;;;;;5012112;28;20264;-83
2022/07/15 05:52:39;;;;;;;5.35;2.80;;;17.10;99.90;;;;;;5012318;28;20276;-82
2022/07/15 05:55:05;;;;;;;6.25;3.17;;;17.00;99.90;;;;;;5012328;28;20189;-83
2022/07/15 05:57:32;;;;;;;6.38;3.70;;;16.90;99.90;;;;;;5010935;28;20634;-83
2022/07/15 05:59:57;;;;;;;3.95;3.13;;;16.90;99.90;;;;;;5028167;28;20189;-83
2022/07/15 06:02:23;;;;;;;3.08;2.75;;;16.90;99.90;;;;;;5011344;28;20186;-83
2022/07/15 06:04:49;;;;;;;4.60;2.83;;;16.80;99.90;;;;;;5011719;28;20181;-83
2022/07/15 06:07:14;;;;;;;4.45;2.97;;;16.90;99.90;;;;;;4994802;28;20355;-82
2022/07/15 06:09:40;;;;;;;4.25;2.95;;;16.90;99.90;;;;;;5005496;28;20185;-82
2022/07/15 06:12:06;;;;;;;4.30;3.03;;;17.00;99.90;;;;;;4975787;28;20691;-83
2022/07/15 06:14:31;;;;;;;4.53;3.13;;;17.10;99.90;;;;;;4995593;28;20277;-83
2022/07/15 06:16:57;;;;;;;4.15;3.05;;;17.10;99.90;;;;;;4996108;28;20190;-83
2022/07/15 06:19:22;;;;;;;8.05;3.03;;;17.20;99.90;;;;;;5002104;28;20181;-82
2022/07/15 06:21:48;;;;;;;3.20;2.67;;;17.20;99.90;;;;;;5002264;28;20190;-84
2022/07/15 06:24:14;;;;;;;8.40;3.55;;;17.20;99.90;;;;;;5013050;28;20178;-83
2022/07/15 06:26:40;;;;;;;6.22;2.97;;;17.20;99.90;;;;;;5004841;28;20709;-83
2022/07/15 06:29:05;;;;;;;3.28;2.45;;;17.10;99.90;;;;;;5007381;28;20221;-81
2022/07/15 06:31:31;;;;;;;8.20;3.70;;;17.10;99.90;;;;;;4996702;28;20181;-83
2022/07/15 06:33:59;;;;;;;4.85;2.80;;;17.00;99.90;;;;;;5012665;28;20276;-83
2022/07/15 06:36:25;;;;;;;4.68;2.63;;;17.10;99.90;;;;;;5006930;28;20185;-82
2022/07/15 06:38:51;;;;;;;4.55;3.10;;;17.30;99.90;;;;;;5003461;28;20213;-84
2022/07/15 06:41:16;;;;;;;5.95;2.95;;;17.40;99.90;;;;;;5005036;28;20173;-83
2022/07/15 06:43:44;;;;;;;6.07;2.95;;;17.50;99.90;;;;;;5010156;28;20584;-82
2022/07/15 06:46:09;;;;;;;3.45;2.33;;;17.60;99.90;;;;;;5005332;28;20216;-82
2022/07/15 06:48:35;;;;;;;3.85;2.17;;;17.70;99.90;;;;;;5006262;28;20276;-82
2022/07/15 06:51:01;;;;;;;2.33;2.13;;;17.80;99.90;;;;;;5007270;28;20180;-82
2022/07/15 06:53:26;;;;;;;2.28;2.08;;;17.80;99.90;;;;;;5006755;28;20189;-84
2022/07/15 06:55:52;;;;;;;2.45;1.85;;;17.80;99.90;;;;;;5009063;28;20193;-84
2022/07/15 06:58:18;;;;;;;1.63;1.52;;;17.80;99.90;;;;;;5015880;28;20634;-85
2022/07/15 07:00:43;;;;;;;7.00;2.30;;;17.70;99.90;;;;;;5015616;28;20645;-84
2022/07/15 07:03:09;;;;;;;1.95;1.58;;;17.80;99.90;;;;;;5014086;28;20193;-84
2022/07/15 07:05:34;;;;;;;3.10;2.10;;;17.90;99.90;;;;;;5006693;28;20188;-84
2022/07/15 07:08:00;;;;;;;2.65;1.20;;;18.00;99.90;;;;;;4996034;28;20643;-83
2022/07/15 07:10:26;;;;;;;2.42;2.05;;;18.20;99.90;;;;;;4994420;28;20710;-84
2022/07/15 07:12:52;;;;;;;2.13;1.60;;;18.50;99.90;;;;;;4994920;28;20269;-85
2022/07/15 07:15:19;;;;;;;4.38;1.58;;;18.70;99.90;;;;;;4995913;28;20272;-86
2022/07/15 07:17:44;;;;;;;3.00;1.55;;;18.80;99.90;;;;;;5003117;28;20284;-83
2022/07/15 07:20:10;;;;;;;2.55;1.10;;;18.90;99.90;;;;;;4994454;28;20281;-85
2022/07/15 07:22:37;;;;;;;1.95;1.08;;;18.80;99.90;;;;;;4994604;28;20178;-84
2022/07/15 07:25:03;;;;;;;0.95;0.90;;;18.90;99.90;;;;;;4993468;28;20185;-84
2022/07/15 07:27:29;;;;;;;3.58;1.48;;;18.90;99.90;;;;;;4995067;28;20214;-83
2022/07/15 07:29:54;;;;;;;0.80;0.80;;;19.10;99.90;;;;;;4978526;28;20658;-84
2022/07/15 07:32:20;;;;;;;1.75;1.10;;;19.20;99.90;;;;;;5002646;28;20708;-87
2022/07/15 07:34:45;;;;;;;1.27;1.00;;;19.30;99.90;;;;;;5004650;28;20182;-84
2022/07/15 07:37:11;;;;;;;0.77;0.77;;;19.50;99.90;;;;;;5006305;28;20196;-85
2022/07/15 07:39:36;;;;;;;2.35;1.05;;;19.60;99.90;;;;;;5007526;28;20235;-84
2022/07/15 07:42:02;;;;;;;2.00;1.38;;;19.70;99.90;;;;;;5000846;28;20182;-85
2022/07/15 07:44:28;;;;;;;1.33;0.93;;;19.70;99.90;;;;;;5001358;28;20236;-84
2022/07/15 07:46:53;;;;;;;2.90;0.80;;;19.80;99.90;;;;;;5006738;28;20297;-84
2022/07/15 07:49:19;;;;;;;4.20;1.05;;;19.90;99.90;;;;;;5004362;28;20549;-84
2022/07/15 07:51:44;;;;;;;1.13;0.90;;;20.00;99.90;;;;;;5002782;28;20627;-83
2022/07/15 07:54:10;;;;;;;2.53;0.88;;;20.00;99.90;;;;;;5001045;28;20197;-83
2022/07/15 07:56:36;;;;;;;2.00;1.10;;;20.00;99.90;;;;;;4995833;28;20205;-84
2022/07/15 07:59:01;;;;;;;2.50;0.90;;;20.10;99.90;;;;;;4994705;28;20209;-83
2022/07/15 08:01:27;;;;;;;1.20;0.73;;;20.10;99.90;;;;;;4995473;28;20192;-84
2022/07/15 08:03:52;;;;;;;0.50;0.45;;;20.20;99.90;;;;;;4994272;28;20224;-83
2022/07/15 08:06:18;;;;;;;0.80;0.77;;;20.30;99.90;;;;;;4995171;28;20213;-84
2022/07/15 08:08:45;;;;;;;1.55;0.50;;;20.30;99.90;;;;;;4995343;28;20177;-84
2022/07/15 08:11:11;;;;;;;3.13;0.98;;;20.30;99.90;;;;;;4995427;28;20663;-83
2022/07/15 08:13:38;;;;;;;0.60;0.60;;;20.30;99.90;;;;;;4995210;28;20182;-84
2022/07/15 08:16:04;;;;;;;2.03;0.60;;;20.20;99.90;;;;;;4994275;28;20186;-84
2022/07/15 08:18:30;;;;;;;0.95;0.50;;;20.20;99.90;;;;;;4995259;28;20204;-85
2022/07/15 08:20:56;;;;;;;0.35;0.35;;;20.30;99.90;;;;;;4994048;28;20567;-85
2022/07/15 08:23:21;;;;;;;0.43;0.43;;;20.30;99.90;;;;;;4995144;28;20718;-84
2022/07/15 08:25:49;;;;;;;3.15;0.50;;;20.30;99.90;;;;;;4995155;28;20304;-84
2022/07/15 08:28:15;;;;;;;0.80;0.38;;;20.40;99.90;;;;;;4995862;28;20237;-84
2022/07/15 08:30:41;;;;;;;1.38;0.60;;;20.60;99.90;;;;;;4994836;28;20185;-85
2022/07/15 08:33:07;;;;;;;0.77;0.45;;;20.80;99.90;;;;;;4996174;28;20182;-85
2022/07/15 08:35:34;;;;;;;0.50;0.40;;;21.00;99.90;;;;;;4977167;28;20536;-83
2022/07/15 08:38:05;;;;;;;0.57;0.43;;;21.00;99.90;;;;;;4995165;28;20182;-85
2022/07/15 08:40:31;;;;;;;2.35;0.63;;;21.00;99.90;;;;;;4993211;28;20229;-84
2022/07/15 08:42:57;;;;;;;0.50;0.50;;;21.20;98.40;;;;;;4995080;28;20236;-84
2022/07/15 08:45:23;;;;;;;0.63;0.50;;;21.10;95.60;;;;;;4994747;28;20185;-85
2022/07/15 08:47:51;;;;;;;0.40;0.40;;;21.00;96.00;;;;;;4994617;28;20189;-85
2022/07/15 08:50:18;;;;;;;1.55;0.40;;;21.10;96.80;;;;;;4994888;28;20174;-85
2022/07/15 08:52:45;;;;;;;0.73;0.30;;;21.20;92.50;;;;;;4995026;28;20186;-84
2022/07/15 08:55:13;;;;;;;0.45;0.45;;;21.10;91.40;;;;;;4995656;28;20182;-85
2022/07/15 08:57:38;;;;;;;1.75;0.40;;;21.00;88.60;;;;;;4993821;28;20213;-86
2022/07/15 09:00:10;;;;;;;0.65;0.60;;;21.00;92.60;;;;;;4995346;28;20678;-85
2022/07/15 09:02:37;;;;;;;2.00;0.50;;;21.10;92.20;;;;;;4993233;28;20232;-84
2022/07/15 09:05:29;;;;;;;0.45;0.45;;;21.10;92.20;;;;;;4994297;28;20178;-85
2022/07/15 09:08:03;;;;;;;1.40;0.77;;;21.00;90.70;;;;;;5013125;28;20189;-86
2022/07/15 09:10:51;;;;;;;0.82;0.70;;;21.10;92.20;;;;;;5007956;28;20540;-85
2022/07/15 09:13:32;;;;;;;1.08;0.95;;;21.20;90.40;;;;;;5000491;28;20200;-84
2022/07/15 09:16:21;;;;;;;0.75;0.57;;;20.90;87.20;;;;;;4998284;28;20277;-84
2022/07/15 09:18:49;;;;;;;1.20;0.73;;;20.90;89.20;;;;;;4995213;28;20200;-83
2022/07/15 09:21:19;;;;;;;1.20;0.98;;;20.90;87.40;;;;;;4994185;28;20201;-83
2022/07/15 09:23:45;;;;;;;4.10;1.17;;;21.10;88.20;;;;;;4994343;28;20189;-84
2022/07/15 09:26:29;;;;;;;0.47;0.47;;;21.10;87.70;;;;;;4994162;28;20658;-84
2022/07/15 09:28:55;;;;;;;1.25;0.60;;;21.30;83.00;;;;;;4994102;28;20229;-85
2022/07/15 09:34:21;;;;;;;0.60;0.60;;;21.20;86.50;;;;;;4994031;28;20177;-84
2022/07/15 09:36:52;;;;;;;1.10;0.55;;;21.20;86.00;;;;;;4993035;28;20241;-83
2022/07/15 09:39:19;;;;;;;1.77;0.50;;;21.20;86.40;;;;;;4995159;28;20250;-85
2022/07/15 09:41:45;;;;;;;2.60;0.60;;;21.20;85.50;;;;;;4994691;28;20174;-84
2022/07/15 09:44:19;;;;;;;1.45;0.75;;;21.10;86.00;;;;;;4996116;28;20182;-83
2022/07/15 09:46:51;;;;;;;0.98;0.60;;;21.10;87.60;;;;;;5001227;28;20209;-83
2022/07/15 09:49:34;;;;;;;0.98;0.80;;;21.20;88.60;;;;;;5009599;28;20213;-86
2022/07/15 09:52:00;;;;;;;7.57;0.93;;;21.30;88.00;;;;;;5010243;28;20169;-84
2022/07/15 09:54:31;;;;;;;0.63;0.63;;;21.50;89.30;;;;;;5009124;28;20231;-84
2022/07/15 09:57:00;;;;;;;0.70;0.40;;;21.70;83.00;;;;;;4999686;28;20620;-85
2022/07/15 09:59:27;;;;;;;0.85;0.55;;;21.80;84.20;;;;;;5000078;28;20228;-86
2022/07/15 10:01:53;;;;;;;0.50;0.38;;;21.90;86.40;;;;;;5022983;28;20522;-86
2022/07/15 10:04:21;;;;;;;2.35;0.63;;;22.20;81.50;;;;;;5007726;28;20194;-86
2022/07/15 10:06:50;;;;;;;2.88;0.80;;;22.20;81.80;;;;;;5015049;28;20278;-85
2022/07/15 10:09:24;;;;;;;0.63;0.60;;;22.30;81.00;;;;;;5008266;28;20173;-85
2022/07/15 10:11:53;;;;;;;1.00;0.50;;;22.20;77.40;;;;;;5005483;28;20295;-83
2022/07/15 10:14:53;;;;;;;1.40;0.47;;;22.30;80.70;;;;;;5006289;28;20260;-86
2022/07/15 10:17:38;;;;;;;1.00;0.63;;;22.40;75.00;;;;;;5008981;28;20177;-87
2022/07/15 10:20:18;;;;;;;0.60;0.60;;;22.20;76.30;;;;;;5012175;28;20204;-87
2022/07/15 10:23:01;;;;;;;0.50;0.50;;;21.80;78.60;;;;;;5008643;28;20185;-86
2022/07/15 10:26:08;;;;;;;1.63;0.57;;;21.70;79.30;;;;;;5026053;28;20181;-87
2022/07/15 10:28:55;;;;;;;1.35;0.60;;;21.70;80.30;;;;;;4974950;28;20642;-86
2022/07/15 10:31:24;;;;;;;0.40;0.40;;;21.90;83.70;;;;;;5010400;28;20189;-84
2022/07/15 10:34:17;;;;;;;0.45;0.45;;;21.70;80.60;;;;;;5014474;28;20267;-85
2022/07/15 10:36:49;;;;;;;0.60;0.60;;;21.70;78.70;;;;;;5012436;28;20327;-85
2022/07/15 10:39:20;;;;;;;1.42;0.68;;;21.80;78.70;;;;;;5011169;28;20198;-85
2022/07/15 10:42:03;;;;;;;0.68;0.65;;;21.80;82.10;;;;;;5035863;28;20173;-85
2022/07/15 10:44:34;;;;;;;3.47;0.68;;;21.90;81.90;;;;;;5031564;28;20169;-86
2022/07/15 10:47:12;;;;;;;1.45;0.50;;;22.00;80.40;;;;;;5034133;28;20215;-86
2022/07/15 10:49:39;;;;;;;0.52;0.50;;;22.10;81.90;;;;;;5022217;28;20238;-84
2022/07/15 10:52:31;;;;;;;0.47;0.47;;;22.00;76.30;;;;;;5023320;28;20177;-83
2022/07/15 10:55:00;;;;;;;0.40;0.40;;;22.20;80.10;;;;;;5021195;28;20228;-84
2022/07/15 10:57:41;;;;;;;0.95;0.63;;;22.20;81.30;;;;;;5026269;28;20177;-85
2022/07/15 11:00:31;;;;;;;4.55;0.80;;;22.20;76.20;;;;;;5039791;28;20177;-84
2022/07/15 11:03:12;;;;;;;0.80;0.50;;;22.30;76.30;;;;;;5039980;28;20185;-85
2022/07/15 11:06:01;;;;;;;2.05;0.63;;;22.20;75.80;;;;;;5047488;28;20158;-84
2022/07/15 11:08:36;;;;;;;1.02;0.60;;;22.30;79.10;;;;;;5025003;28;20224;-84
2022/07/15 11:11:13;;;;;;;0.98;0.52;;;22.30;77.30;;;;;;5025049;28;20197;-85
2022/07/15 11:13:41;;;;;;;0.60;0.60;;;22.30;76.80;;;;;;5023700;28;20173;-85
2022/07/15 11:16:11;;;;;;;1.00;0.60;;;22.30;79.30;;;;;;5029199;28;20166;-83
2022/07/15 11:18:48;;;;;;;1.23;0.65;;;22.10;78.00;;;;;;5027853;28;20225;-85
2022/07/15 11:21:14;;;;;;;0.70;0.70;;;22.30;78.70;;;;;;5028359;28;20196;-85
2022/07/15 11:23:43;;;;;;;0.90;0.60;;;22.50;78.90;;;;;;5017680;28;20189;-84
2022/07/15 11:26:08;;;;;;;0.63;0.47;;;22.70;77.10;;;;;;5015416;28;20287;-85
2022/07/15 11:28:35;;;;;;;0.55;0.50;;;22.60;75.90;;;;;;5011280;28;20236;-83
2022/07/15 11:31:01;;;;;;;1.35;0.73;;;22.60;76.80;;;;;;5008222;28;20182;-82
2022/07/15 11:33:27;;;;;;;1.10;0.60;;;22.10;78.60;;;;;;5007131;28;20655;-82
2022/07/15 11:35:55;;;;;;;1.50;0.70;;;21.70;80.60;;;;;;5006027;28;20634;-84
2022/07/15 11:38:24;;;;;;;0.98;0.60;;;21.60;83.60;;;;;;5010391;28;20185;-83
2022/07/15 11:46:24;;;;;;;0.73;0.57;;;22.30;76.20;;;;;;5014806;28;20223;-84
2022/07/15 11:48:51;;;;;;;0.50;0.50;;;22.60;73.70;;;;;;5009977;28;20336;-82
2022/07/15 11:51:30;;;;;;;0.50;0.40;;;22.50;71.70;;;;;;5012494;28;20553;-84
2022/07/15 11:53:57;;;;;;;1.13;0.60;;;22.40;74.80;;;;;;5022340;28;20176;-82
2022/07/15 11:56:23;;;;;;;0.35;0.35;;;22.40;77.30;;;;;;5005293;28;20174;-82
2022/07/15 11:58:54;;;;;;;0.52;0.40;;;22.30;73.30;;;;;;5011710;28;20181;-86
2022/07/15 12:01:23;;;;;;;1.05;0.60;;;22.10;72.90;;;;;;5014491;28;20173;-83
2022/07/15 12:03:53;;;;;;;0.50;0.40;;;21.80;77.10;;;;;;5014488;28;20348;-83
2022/07/15 12:06:28;;;;;;;0.63;0.50;;;21.60;78.10;;;;;;5014497;28;20209;-82
2022/07/15 12:09:08;;;;;;;0.73;0.73;;;21.70;76.20;;;;;;5002241;28;20609;-83
2022/07/15 12:11:38;;;;;;;1.10;0.68;;;21.90;77.50;;;;;;5012983;28;20202;-85
2022/07/15 12:14:10;;;;;;;0.43;0.32;;;22.10;74.20;;;;;;4996431;28;20231;-84
2022/07/15 12:16:45;;;;;;;0.40;0.40;;;22.10;69.20;;;;;;4993061;28;20193;-82
2022/07/15 12:19:19;;;;;;;0.90;0.65;;;22.20;70.30;;;;;;4994832;28;20170;-82
2022/07/15 12:21:48;;;;;;;1.05;0.65;;;22.40;69.40;;;;;;4994987;28;20174;-82
2022/07/15 12:24:22;;;;;;;0.40;0.40;;;22.40;68.90;;;;;;4994673;28;20201;-84
2022/07/15 12:26:51;;;;;;;0.63;0.40;;;22.50;74.10;;;;;;4993897;28;20337;-83
2022/07/15 12:29:22;;;;;;;0.82;0.60;;;22.10;74.70;;;;;;4995344;28;20237;-85
2022/07/15 12:31:53;;;;;;;0.60;0.60;;;21.90;76.00;;;;;;4995063;28;20166;-82
2022/07/15 12:34:19;;;;;;;1.30;0.47;;;21.90;74.20;;;;;;4994184;28;20174;-84
2022/07/15 12:36:55;;;;;;;1.60;0.47;;;22.00;74.20;;;;;;5010879;28;20275;-83
2022/07/15 12:39:21;;;;;;;0.63;0.40;;;22.20;74.30;;;;;;5011843;28;20622;-85
2022/07/15 12:42:04;;;;;;;3.40;0.40;;;22.40;70.00;;;;;;5012849;28;20181;-85
2022/07/15 12:44:31;;;;;;;0.77;0.30;;;22.70;68.10;;;;;;5011151;28;20201;-84
2022/07/15 12:46:58;;;;;;;0.93;0.82;;;22.80;68.00;;;;;;5012718;28;20744;-85
2022/07/15 12:50:00;;;;;;;0.32;0.32;;;22.60;72.30;;;;;;5013090;28;20652;-84
2022/07/15 12:52:30;;;;;;;0.60;0.40;;;22.30;71.30;;;;;;4896512;29;20660;-84
2022/07/15 12:54:56;;;;;;;2.45;0.43;;;22.10;75.20;;;;;;4979579;28;20762;-84
2022/07/15 12:57:32;;;;;;;1.30;0.50;;;22.10;72.70;;;;;;4995684;28;20193;-83
2022/07/15 13:00:01;;;;;;;0.40;0.40;;;22.10;70.70;;;;;;4994452;28;20170;-85
2022/07/15 13:02:27;;;;;;;0.28;0.28;;;21.90;69.40;;;;;;4994337;28;20170;-84
2022/07/15 13:04:53;;;;;;;0.45;0.45;;;21.90;72.70;;;;;;4993812;28;20193;-84
2022/07/15 13:07:19;;;;;;;0.47;0.30;;;22.10;72.50;;;;;;4994586;28;20210;-83